Michipicoten — CFG8060 — position and weather

sailwx.info

Track history (hours):
 
Tides and Currents Weather Stations Pressure Air Temp Water Temp Dewpoint Dewpoint Depression Visibility Wind Speed Wind Dir Waves Ship Positions

Michipicoten

Last reported at 2014-Jul-29 16:30 UTC. Time now 2014-Jul-31 13:38 UTC.
Position N 45°07' W 086°21'.

Length 212 m.

Type: Ship. MMSI: 316002501.

Date/timePositionNaut miles runAvg speedWind from/ knotsBaromVisibWave heightAir tempDewpointWater temp
2014-Jul-29 16:30N 45°07' W 086°21'1313.3
2014-Jul-29 15:33N 45°19' W 086°16'1313.2
2014-Jul-29 14:33N 45°32' W 086°11'1312.6
2014-Jul-29 13:33N 45°43' W 086°02'1313.4
2014-Jul-29 12:33N 45°49' W 085°45'1212.5
2014-Jul-29 11:33N 45°53' W 085°28'1313.0
2014-Jul-29 10:33N 45°52' W 085°10'1313.0
2014-Jul-29 09:33N 45°50' W 084°51'1211.5
2014-Jul-29 08:33N 45°51' W 084°35'1313.0
2014-Jul-29 07:33N 45°53' W 084°16'1313.3
2014-Jul-29 06:33N 45°55' W 083°58'8 8.3
2014-Jul-29 05:33N 46°04' W 083°59'1010.2
2014-Jul-29 04:33N 46°12' W 084°08'7 6.9
2014-Jul-29 03:33N 46°18' W 084°13'14 0.6
2014-Jul-28 02:17N 46°30' W 084°24'0 0.0
2014-Jul-28 01:32N 46°30' W 084°24'0 0.0
2014-Jul-28 00:32N 46°30' W 084°24'7 0.7
2014-Jul-27 13:30N 46°29' W 084°35'4112.4
2014-Jul-27 10:10N 46°49' W 085°26'913.7
2014-Jul-27 09:31N 46°49' W 085°40'1813.7
2014-Jul-27 08:11N 46°47' W 086°06'72 1.6
2014-Jul-25 12:29N 46°30' W 084°24'7 7.9
2014-Jul-25 11:33N 46°28' W 084°33'1313.3
2014-Jul-25 10:33N 46°38' W 084°46'1313.5
2014-Jul-25 09:33N 46°48' W 084°58'28 1.4
2014-Jul-24 13:17N 46°27' W 084°32'8 8.8
2014-Jul-24 12:24N 46°31' W 084°23'0 0.0
2014-Jul-24 11:32N 46°31' W 084°23'0 0.0
2014-Jul-24 10:09N 46°31' W 084°23'0 0.0
2014-Jul-24 08:33N 46°31' W 084°23'6 2.8
2014-Jul-24 06:33N 46°28' W 084°29'  
2014-Jul-21 19:04N 46°27' W 084°32'7 2.0
2014-Jul-21 15:27N 46°31' W 084°23'0 0.0
2014-Jul-21 14:28N 46°31' W 084°23'5 0.2
2014-Jul-20 13:33N 46°28' W 084°28'4 4.5
2014-Jul-20 12:33N 46°31' W 084°23'0 0.0
2014-Jul-20 11:33N 46°31' W 084°23'0 0.0
2014-Jul-20 10:33N 46°31' W 084°23'0 0.0
2014-Jul-20 09:33N 46°31' W 084°23'0 0.0
2014-Jul-20 08:33N 46°31' W 084°23'1 0.7
2014-Jul-20 07:32N 46°30' W 084°23'8 8.3
2014-Jul-20 06:33N 46°28' W 084°35'1313.2
2014-Jul-20 05:33N 46°39' W 084°47'1312.9
2014-Jul-20 04:31N 46°48' W 085°00'  
Track history (hours):
 
Tides and Currents Weather Stations Pressure Air Temp Water Temp Dewpoint Dewpoint Depression Visibility Wind Speed Wind Dir Waves Ship Positions

Michipicoten

Last reported at 2014-Jul-29 16:30 UTC. Time now 2014-Jul-31 13:38 UTC.
Position N 45°07' W 086°21'.

Length 212 m.

Type: Ship. MMSI: 316002501.

Date/timePositionNaut miles runAvg speedWind from/ knotsBaromVisibWave heightAir tempDewpointWater temp
2014-Jul-29 16:30N 45°07' W 086°21'1313.3
2014-Jul-29 15:33N 45°19' W 086°16'1313.2
2014-Jul-29 14:33N 45°32' W 086°11'1312.6
2014-Jul-29 13:33N 45°43' W 086°02'1313.4
2014-Jul-29 12:33N 45°49' W 085°45'1212.5
2014-Jul-29 11:33N 45°53' W 085°28'1313.0
2014-Jul-29 10:33N 45°52' W 085°10'1313.0
2014-Jul-29 09:33N 45°50' W 084°51'1211.5
2014-Jul-29 08:33N 45°51' W 084°35'1313.0
2014-Jul-29 07:33N 45°53' W 084°16'1313.3
2014-Jul-29 06:33N 45°55' W 083°58'8 8.3
2014-Jul-29 05:33N 46°04' W 083°59'1010.2
2014-Jul-29 04:33N 46°12' W 084°08'7 6.9
2014-Jul-29 03:33N 46°18' W 084°13'14 0.6
2014-Jul-28 02:17N 46°30' W 084°24'0 0.0
2014-Jul-28 01:32N 46°30' W 084°24'0 0.0
2014-Jul-28 00:32N 46°30' W 084°24'7 0.7
2014-Jul-27 13:30N 46°29' W 084°35'4112.4
2014-Jul-27 10:10N 46°49' W 085°26'913.7
2014-Jul-27 09:31N 46°49' W 085°40'1813.7
2014-Jul-27 08:11N 46°47' W 086°06'72 1.6
2014-Jul-25 12:29N 46°30' W 084°24'7 7.9
2014-Jul-25 11:33N 46°28' W 084°33'1313.3
2014-Jul-25 10:33N 46°38' W 084°46'1313.5
2014-Jul-25 09:33N 46°48' W 084°58'28 1.4
2014-Jul-24 13:17N 46°27' W 084°32'8 8.8
2014-Jul-24 12:24N 46°31' W 084°23'0 0.0
2014-Jul-24 11:32N 46°31' W 084°23'0 0.0
2014-Jul-24 10:09N 46°31' W 084°23'0 0.0
2014-Jul-24 08:33N 46°31' W 084°23'6 2.8
2014-Jul-24 06:33N 46°28' W 084°29'  
2014-Jul-21 19:04N 46°27' W 084°32'7 2.0
2014-Jul-21 15:27N 46°31' W 084°23'0 0.0
2014-Jul-21 14:28N 46°31' W 084°23'5 0.2
2014-Jul-20 13:33N 46°28' W 084°28'4 4.5
2014-Jul-20 12:33N 46°31' W 084°23'0 0.0
2014-Jul-20 11:33N 46°31' W 084°23'0 0.0
2014-Jul-20 10:33N 46°31' W 084°23'0 0.0
2014-Jul-20 09:33N 46°31' W 084°23'0 0.0
2014-Jul-20 08:33N 46°31' W 084°23'1 0.7
2014-Jul-20 07:32N 46°30' W 084°23'8 8.3
2014-Jul-20 06:33N 46°28' W 084°35'1313.2
2014-Jul-20 05:33N 46°39' W 084°47'1312.9
2014-Jul-20 04:31N 46°48' W 085°00'  

Dump ship's entire track history